Time;durP1;ratioP1;P1;durP2;ratioP2;P2;SDS_P1;SDS_P2;PMS_P1;PMS_P2;Temp;Humidity;BMP_temperature;BMP_pressure;BME280_temperature;BME280_humidity;BME280_pressure;Samples;Min_cycle;Max_cycle;Signal;HPM_P1;HPM_P2
2023/12/10 00:01:43;;;;;;;49.72;14.57;;;2.20;100.00;;;;;;4978844;28;20054;-65
2023/12/10 00:04:10;;;;;;;60.17;16.58;;;2.20;100.00;;;;;;4980091;28;20054;-65
2023/12/10 00:06:37;;;;;;;51.60;16.40;;;2.20;100.00;;;;;;4993143;28;20105;-65
2023/12/10 00:09:04;;;;;;;49.80;16.90;;;2.20;100.00;;;;;;4980548;28;20502;-65
2023/12/10 00:11:31;;;;;;;57.65;15.73;;;2.20;100.00;;;;;;4979336;28;20462;-65
2023/12/10 00:14:01;;;;;;;48.55;15.77;;;2.20;100.00;;;;;;4978071;28;20081;-65
2023/12/10 00:16:28;;;;;;;54.88;16.05;;;2.20;100.00;;;;;;4979270;28;20050;-64
2023/12/10 00:18:55;;;;;;;50.33;15.18;;;2.20;100.00;;;;;;4979543;28;20210;-65
2023/12/10 00:21:22;;;;;;;49.90;16.08;;;2.20;100.00;;;;;;4979822;28;20046;-65
2023/12/10 00:23:49;;;;;;;54.30;16.85;;;2.20;100.00;;;;;;4979217;28;20395;-65
2023/12/10 00:26:16;;;;;;;45.22;16.27;;;2.20;100.00;;;;;;4995811;28;20054;-65
2023/12/10 00:28:43;;;;;;;43.08;14.45;;;2.20;100.00;;;;;;4980015;28;20100;-65
2023/12/10 00:31:11;;;;;;;49.63;15.77;;;2.20;100.00;;;;;;4990000;23;20054;-70
2023/12/10 00:33:38;;;;;;;48.92;15.30;;;2.20;100.00;;;;;;4969900;28;20042;-71
2023/12/10 00:36:06;;;;;;;49.63;15.70;;;2.20;100.00;;;;;;4976784;28;20058;-72
2023/12/10 00:38:33;;;;;;;43.15;15.60;;;2.20;100.00;;;;;;4990237;28;20560;-71
2023/12/10 00:41:00;;;;;;;57.00;16.48;;;2.20;100.00;;;;;;4975061;28;20054;-72
2023/12/10 00:43:27;;;;;;;47.38;15.60;;;2.20;100.00;;;;;;4972369;28;20126;-72
2023/12/10 00:45:54;;;;;;;52.25;15.70;;;2.20;100.00;;;;;;4974744;28;20062;-72
2023/12/10 00:48:21;;;;;;;50.75;15.70;;;2.20;100.00;;;;;;4972653;28;20054;-72
2023/12/10 00:50:49;;;;;;;44.30;14.38;;;2.20;100.00;;;;;;4975609;28;20046;-71
2023/12/10 00:53:15;;;;;;;42.95;14.90;;;2.20;100.00;;;;;;4975781;28;20046;-72
2023/12/10 00:55:44;;;;;;;43.80;13.68;;;2.30;100.00;;;;;;4971638;28;20058;-72
2023/12/10 00:58:13;;;;;;;58.10;14.95;;;2.30;100.00;;;;;;4974016;28;20498;-72
2023/12/10 01:00:41;;;;;;;53.08;14.73;;;2.30;100.00;;;;;;4975152;28;20144;-72
2023/12/10 01:03:08;;;;;;;45.10;14.80;;;2.30;100.00;;;;;;4979397;28;20065;-72
2023/12/10 01:05:35;;;;;;;45.08;14.68;;;2.30;100.00;;;;;;4979497;28;20183;-71
2023/12/10 01:08:03;;;;;;;55.17;14.90;;;2.30;100.00;;;;;;4978288;28;20081;-71
2023/12/10 01:10:30;;;;;;;52.20;16.42;;;2.30;100.00;;;;;;4979047;28;20050;-72
2023/12/10 01:12:57;;;;;;;43.58;13.80;;;2.30;100.00;;;;;;4978315;28;20104;-72
2023/12/10 01:15:30;;;;;;;46.25;15.32;;;2.30;100.00;;;;;;4977771;28;20498;-72
2023/12/10 01:18:01;;;;;;;35.28;13.13;;;2.30;100.00;;;;;;4979484;28;20046;-72
2023/12/10 01:20:30;;;;;;;49.92;15.95;;;2.30;100.00;;;;;;4979164;28;20058;-72
2023/12/10 01:22:58;;;;;;;44.67;14.15;;;2.40;100.00;;;;;;4978851;28;20053;-72
2023/12/10 01:25:25;;;;;;;46.65;14.63;;;2.40;100.00;;;;;;4977900;28;20061;-71
2023/12/10 01:27:53;;;;;;;39.15;13.27;;;2.40;100.00;;;;;;4978922;28;20061;-71
2023/12/10 01:30:23;;;;;;;37.63;13.13;;;2.40;100.00;;;;;;4976687;28;20053;-71
2023/12/10 01:32:52;;;;;;;38.83;13.38;;;2.40;100.00;;;;;;4974191;28;20052;-72
2023/12/10 01:35:20;;;;;;;34.30;12.90;;;2.40;100.00;;;;;;4971107;28;20054;-72
2023/12/10 01:37:47;;;;;;;41.05;13.07;;;2.40;100.00;;;;;;4973318;28;20057;-71
2023/12/10 01:40:15;;;;;;;41.25;13.23;;;2.40;100.00;;;;;;4973742;28;20062;-71
2023/12/10 01:42:44;;;;;;;35.58;12.13;;;2.40;100.00;;;;;;4974910;28;20057;-71
2023/12/10 01:45:11;;;;;;;35.85;12.40;;;2.40;100.00;;;;;;4971967;28;20054;-71
2023/12/10 01:47:43;;;;;;;35.30;12.85;;;2.40;100.00;;;;;;4974272;28;20157;-70
2023/12/10 01:50:13;;;;;;;34.88;12.50;;;2.40;100.00;;;;;;4973673;28;20050;-71
2023/12/10 01:52:43;;;;;;;34.90;12.02;;;2.40;100.00;;;;;;4974352;28;20054;-70
2023/12/10 01:55:12;;;;;;;34.35;12.27;;;2.40;100.00;;;;;;4974197;28;20054;-70
2023/12/10 01:57:39;;;;;;;34.38;11.52;;;2.40;100.00;;;;;;4971996;28;20046;-70
2023/12/10 02:00:07;;;;;;;45.25;13.40;;;2.40;100.00;;;;;;4973230;28;20068;-70
2023/12/10 02:02:36;;;;;;;37.80;11.50;;;2.40;100.00;;;;;;4977826;28;20050;-71
2023/12/10 02:05:06;;;;;;;33.30;11.57;;;2.40;100.00;;;;;;4978290;28;20145;-70
2023/12/10 02:07:34;;;;;;;37.90;12.57;;;2.40;100.00;;;;;;4977194;28;20078;-70
2023/12/10 02:10:04;;;;;;;37.35;12.60;;;2.40;100.00;;;;;;4976781;28;20062;-71
2023/12/10 02:12:32;;;;;;;32.53;12.13;;;2.40;100.00;;;;;;4978447;28;20080;-70
2023/12/10 02:15:11;;;;;;;33.33;12.10;;;2.40;100.00;;;;;;4978331;28;20188;-70
2023/12/10 02:17:37;;;;;;;35.60;12.38;;;2.40;100.00;;;;;;4977595;28;20054;-71
2023/12/10 02:20:05;;;;;;;36.42;11.90;;;2.40;100.00;;;;;;4977991;28;20077;-71
2023/12/10 02:22:35;;;;;;;27.80;9.98;;;2.40;100.00;;;;;;4978682;28;20149;-71
2023/12/10 02:25:05;;;;;;;31.80;11.60;;;2.40;100.00;;;;;;4977942;28;20144;-70
2023/12/10 02:27:32;;;;;;;30.70;11.20;;;2.40;100.00;;;;;;4976247;28;20177;-71
2023/12/10 02:29:59;;;;;;;26.85;9.95;;;2.40;100.00;;;;;;4976286;28;20060;-70
2023/12/10 02:32:26;;;;;;;29.20;10.80;;;2.40;100.00;;;;;;4977842;28;20100;-71
2023/12/10 02:34:53;;;;;;;34.05;10.45;;;2.40;100.00;;;;;;4977333;28;21291;-70
2023/12/10 02:37:20;;;;;;;28.30;10.98;;;2.40;100.00;;;;;;4977745;28;20109;-72
2023/12/10 02:39:47;;;;;;;34.78;10.65;;;2.40;100.00;;;;;;4977736;28;20188;-70
2023/12/10 02:42:14;;;;;;;31.23;10.45;;;2.40;100.00;;;;;;4977595;28;20073;-71
2023/12/10 02:44:41;;;;;;;26.88;9.77;;;2.40;100.00;;;;;;4977612;28;20057;-71
2023/12/10 02:47:08;;;;;;;29.95;10.38;;;2.40;100.00;;;;;;4977125;28;20062;-72
2023/12/10 02:49:34;;;;;;;28.85;10.95;;;2.40;100.00;;;;;;4977358;28;20171;-70
2023/12/10 02:52:02;;;;;;;32.33;10.52;;;2.40;100.00;;;;;;4978055;28;20062;-71
2023/12/10 02:54:28;;;;;;;26.10;9.70;;;2.40;100.00;;;;;;4977685;28;20180;-71
2023/12/10 02:56:55;;;;;;;22.15;9.70;;;2.40;100.00;;;;;;4975113;28;20050;-71
2023/12/10 02:59:22;;;;;;;22.92;10.13;;;2.40;100.00;;;;;;4976250;28;20086;-71
2023/12/10 03:01:49;;;;;;;26.13;9.15;;;2.40;100.00;;;;;;4977376;28;20050;-72
2023/12/10 03:04:16;;;;;;;23.80;8.85;;;2.40;100.00;;;;;;4976497;28;20078;-70
2023/12/10 03:06:43;;;;;;;22.45;8.82;;;2.40;100.00;;;;;;4976835;28;20910;-70
2023/12/10 03:09:10;;;;;;;23.05;8.65;;;2.40;100.00;;;;;;4976929;28;20486;-71
2023/12/10 03:11:37;;;;;;;19.98;8.80;;;2.40;100.00;;;;;;4977374;28;20060;-70
2023/12/10 03:14:04;;;;;;;14.68;6.13;;;2.40;100.00;;;;;;4973540;28;20682;-70
2023/12/10 03:16:31;;;;;;;16.33;6.70;;;2.40;100.00;;;;;;4976637;28;20133;-72
2023/12/10 03:18:58;;;;;;;19.73;6.30;;;2.40;100.00;;;;;;4976989;28;20077;-72
2023/12/10 03:21:25;;;;;;;18.42;7.60;;;2.40;100.00;;;;;;4975898;28;20484;-71
2023/12/10 03:23:52;;;;;;;19.52;6.65;;;2.40;100.00;;;;;;4976313;28;20054;-71
2023/12/10 03:26:19;;;;;;;11.82;5.05;;;2.40;100.00;;;;;;4974634;28;20062;-71
2023/12/10 03:28:45;;;;;;;13.00;5.85;;;2.40;100.00;;;;;;4975213;28;20078;-71
2023/12/10 03:31:12;;;;;;;6.22;2.45;;;2.40;100.00;;;;;;4976535;28;20051;-70
2023/12/10 03:33:39;;;;;;;0.20;0.20;;;2.40;100.00;;;;;;4976767;28;20081;-70
2023/12/10 03:36:07;;;;;;;0.00;0.00;;;2.40;100.00;;;;;;4974310;28;20062;-72
2023/12/10 03:38:34;;;;;;;0.00;0.00;;;2.40;100.00;;;;;;4976384;28;20784;-71
2023/12/10 03:41:02;;;;;;;0.00;0.00;;;2.40;100.00;;;;;;4975081;28;20085;-70
2023/12/10 03:43:29;;;;;;;0.20;0.20;;;2.40;100.00;;;;;;4977210;28;20058;-71
2023/12/10 03:45:56;;;;;;;0.00;0.00;;;2.40;100.00;;;;;;4975767;28;20950;-71
2023/12/10 03:51:06;;;;;;;0.00;0.00;;;2.40;100.00;;;;;;4970149;28;20046;-71
2023/12/10 03:53:33;;;;;;;0.00;0.00;;;2.40;100.00;;;;;;4974732;28;20050;-72
2023/12/10 03:56:00;;;;;;;0.00;0.00;;;2.40;100.00;;;;;;4974808;28;20137;-71
2023/12/10 03:58:26;;;;;;;0.00;0.00;;;2.40;100.00;;;;;;4975684;28;20273;-71
2023/12/10 04:00:53;;;;;;;0.00;0.00;;;2.40;100.00;;;;;;4972492;28;20550;-72
2023/12/10 04:03:20;;;;;;;0.00;0.00;;;2.40;100.00;;;;;;4971304;28;20246;-71
2023/12/10 04:05:47;;;;;;;0.00;0.00;;;2.40;100.00;;;;;;4967768;28;20077;-72
2023/12/10 04:08:14;;;;;;;0.00;0.00;;;2.40;100.00;;;;;;4969362;28;20554;-71
2023/12/10 04:10:41;;;;;;;0.00;0.00;;;2.40;100.00;;;;;;4968345;28;20141;-71
2023/12/10 04:13:08;;;;;;;0.00;0.00;;;2.40;100.00;;;;;;4969144;28;20142;-71
2023/12/10 04:15:35;;;;;;;0.00;0.00;;;2.40;100.00;;;;;;4969962;28;20169;-71
2023/12/10 04:18:02;;;;;;;0.00;0.00;;;2.40;100.00;;;;;;4969562;28;20053;-71
2023/12/10 04:20:29;;;;;;;0.00;0.00;;;2.40;100.00;;;;;;4970321;28;20058;-71
2023/12/10 04:22:56;;;;;;;0.00;0.00;;;2.40;100.00;;;;;;4970273;28;22619;-72
2023/12/10 04:25:25;;;;;;;0.00;0.00;;;2.40;100.00;;;;;;4976763;28;20144;-71
2023/12/10 04:27:52;;;;;;;0.00;0.00;;;2.40;100.00;;;;;;4972862;28;20133;-71
2023/12/10 04:30:19;;;;;;;0.00;0.00;;;2.40;100.00;;;;;;4972304;28;20050;-71
2023/12/10 04:32:47;;;;;;;0.00;0.00;;;2.40;100.00;;;;;;4975934;28;20057;-71
2023/12/10 04:35:14;;;;;;;0.00;0.00;;;2.40;100.00;;;;;;4975682;28;20054;-71
2023/12/10 04:37:41;;;;;;;0.00;0.00;;;2.40;100.00;;;;;;4977297;28;20052;-71
2023/12/10 04:40:10;;;;;;;0.00;0.00;;;2.40;100.00;;;;;;4977590;28;20058;-70
2023/12/10 04:42:41;;;;;;;0.00;0.00;;;2.50;100.00;;;;;;4974241;28;20061;-70
2023/12/10 04:45:08;;;;;;;0.00;0.00;;;2.40;100.00;;;;;;4989815;28;20073;-71
2023/12/10 04:47:36;;;;;;;0.00;0.00;;;2.50;100.00;;;;;;4976879;28;20050;-71
2023/12/10 04:50:04;;;;;;;0.00;0.00;;;2.50;100.00;;;;;;4991541;28;20049;-72
2023/12/10 04:52:30;;;;;;;0.00;0.00;;;2.50;100.00;;;;;;4977454;28;20148;-72
2023/12/10 04:54:58;;;;;;;0.00;0.00;;;2.50;100.00;;;;;;4975500;28;20054;-70
2023/12/10 04:57:26;;;;;;;0.00;0.00;;;2.50;100.00;;;;;;4976003;28;20050;-72
2023/12/10 04:59:53;;;;;;;0.00;0.00;;;2.50;100.00;;;;;;4973816;28;20054;-72
2023/12/10 05:02:20;;;;;;;0.00;0.00;;;2.50;100.00;;;;;;4977018;28;20480;-72
2023/12/10 05:04:47;;;;;;;0.00;0.00;;;2.50;100.00;;;;;;4974033;28;20077;-72
2023/12/10 05:07:14;;;;;;;0.00;0.00;;;2.50;100.00;;;;;;4975802;28;20424;-72
2023/12/10 05:09:41;;;;;;;0.00;0.00;;;2.50;100.00;;;;;;4976025;28;20050;-70
2023/12/10 05:12:08;;;;;;;0.00;0.00;;;2.50;100.00;;;;;;4976686;28;20482;-71
2023/12/10 05:14:35;;;;;;;0.00;0.00;;;2.50;100.00;;;;;;4989087;28;20078;-72
2023/12/10 05:17:02;;;;;;;0.00;0.00;;;2.50;100.00;;;;;;4976929;28;20150;-71
2023/12/10 05:19:29;;;;;;;0.00;0.00;;;2.50;100.00;;;;;;4975483;28;20047;-70
2023/12/10 05:21:56;;;;;;;0.00;0.00;;;2.50;100.00;;;;;;4977820;28;20165;-71
2023/12/10 05:24:23;;;;;;;0.00;0.00;;;2.50;100.00;;;;;;4982650;28;20090;-70
2023/12/10 05:26:50;;;;;;;0.00;0.00;;;2.50;100.00;;;;;;4976859;28;20054;-72
2023/12/10 05:29:17;;;;;;;0.00;0.00;;;2.50;100.00;;;;;;4976727;28;20101;-70
2023/12/10 05:31:44;;;;;;;0.00;0.00;;;2.50;100.00;;;;;;4977053;28;20140;-70
2023/12/10 05:34:11;;;;;;;0.00;0.00;;;2.50;100.00;;;;;;4976419;28;20059;-71
2023/12/10 05:36:38;;;;;;;0.00;0.00;;;2.50;100.00;;;;;;4975165;28;20057;-71
2023/12/10 05:39:05;;;;;;;0.00;0.00;;;2.50;100.00;;;;;;4976199;28;20089;-71
2023/12/10 05:41:32;;;;;;;0.00;0.00;;;2.60;100.00;;;;;;4976119;28;20061;-70
2023/12/10 05:43:59;;;;;;;0.00;0.00;;;2.60;100.00;;;;;;4976312;28;20152;-70
2023/12/10 05:46:26;;;;;;;0.00;0.00;;;2.60;100.00;;;;;;4989296;28;20058;-70
2023/12/10 05:48:52;;;;;;;0.00;0.00;;;2.60;100.00;;;;;;4975095;28;20102;-70
2023/12/10 05:51:19;;;;;;;0.00;0.00;;;2.60;100.00;;;;;;4975752;28;20050;-70
2023/12/10 05:53:46;;;;;;;0.00;0.00;;;2.60;100.00;;;;;;4975779;28;20054;-72
2023/12/10 05:56:13;;;;;;;0.00;0.00;;;2.60;100.00;;;;;;4975937;28;20758;-71
2023/12/10 05:58:40;;;;;;;0.00;0.00;;;2.60;100.00;;;;;;4975120;28;21024;-71
2023/12/10 06:01:07;;;;;;;0.00;0.00;;;2.70;100.00;;;;;;4975649;28;20161;-71
2023/12/10 06:03:34;;;;;;;0.00;0.00;;;2.70;100.00;;;;;;4976344;28;20058;-71
2023/12/10 06:06:01;;;;;;;0.00;0.00;;;2.70;100.00;;;;;;4975020;28;20057;-71
2023/12/10 06:08:28;;;;;;;0.00;0.00;;;2.70;100.00;;;;;;4972960;28;20052;-71
2023/12/10 06:10:55;;;;;;;0.00;0.00;;;2.70;100.00;;;;;;4975131;28;20050;-72
2023/12/10 06:13:22;;;;;;;0.00;0.00;;;2.70;100.00;;;;;;4975043;28;20249;-72
2023/12/10 06:15:49;;;;;;;0.00;0.00;;;2.70;100.00;;;;;;4971587;28;20112;-72
2023/12/10 06:18:16;;;;;;;0.00;0.00;;;2.70;100.00;;;;;;4973081;28;20061;-71
2023/12/10 06:20:43;;;;;;;0.00;0.00;;;2.80;100.00;;;;;;4976952;28;20065;-71
2023/12/10 06:23:10;;;;;;;0.00;0.00;;;2.80;100.00;;;;;;4973667;28;20455;-72
2023/12/10 06:25:37;;;;;;;0.00;0.00;;;2.80;100.00;;;;;;4974693;28;20826;-72
2023/12/10 06:28:05;;;;;;;0.00;0.00;;;2.80;100.00;;;;;;4975104;28;20159;-72
2023/12/10 06:30:32;;;;;;;0.00;0.00;;;2.80;100.00;;;;;;4972450;28;20058;-72
2023/12/10 06:32:59;;;;;;;0.00;0.00;;;2.80;100.00;;;;;;4975106;28;20050;-71
2023/12/10 06:35:26;;;;;;;0.00;0.00;;;2.90;100.00;;;;;;4975458;28;20133;-70
2023/12/10 06:37:53;;;;;;;0.00;0.00;;;2.80;100.00;;;;;;4974792;28;20142;-71
2023/12/10 06:40:20;;;;;;;0.00;0.00;;;2.90;100.00;;;;;;4973945;28;20055;-70
2023/12/10 06:42:47;;;;;;;0.00;0.00;;;2.90;100.00;;;;;;4974719;28;20054;-72
2023/12/10 06:45:14;;;;;;;0.00;0.00;;;2.90;100.00;;;;;;4974318;28;20050;-71
2023/12/10 06:47:42;;;;;;;0.00;0.00;;;2.90;100.00;;;;;;4974671;28;20058;-71
2023/12/10 06:50:09;;;;;;;0.00;0.00;;;2.90;100.00;;;;;;4986730;28;20097;-71
2023/12/10 06:52:36;;;;;;;0.00;0.00;;;2.90;100.00;;;;;;4972593;28;20418;-71
2023/12/10 06:55:03;;;;;;;0.00;0.00;;;2.90;100.00;;;;;;4971747;28;20050;-71
2023/12/10 06:57:30;;;;;;;0.00;0.00;;;2.90;100.00;;;;;;4978532;28;20050;-70
2023/12/10 06:59:57;;;;;;;0.00;0.00;;;3.00;100.00;;;;;;4970940;28;20144;-70
2023/12/10 07:02:24;;;;;;;0.00;0.00;;;3.00;100.00;;;;;;4986426;28;20136;-70
2023/12/10 07:04:52;;;;;;;0.00;0.00;;;3.00;100.00;;;;;;4972419;28;20054;-71
2023/12/10 07:07:19;;;;;;;0.00;0.00;;;3.00;100.00;;;;;;4970833;28;20046;-70
2023/12/10 07:09:46;;;;;;;0.00;0.00;;;3.00;100.00;;;;;;4970364;28;20535;-70
2023/12/10 07:12:14;;;;;;;0.00;0.00;;;3.00;100.00;;;;;;4970140;28;20057;-70
2023/12/10 07:14:41;;;;;;;0.00;0.00;;;3.10;100.00;;;;;;4971962;28;20086;-71
2023/12/10 07:17:08;;;;;;;0.00;0.00;;;3.10;100.00;;;;;;4969837;28;20594;-72
2023/12/10 07:19:35;;;;;;;0.00;0.00;;;3.10;100.00;;;;;;4972023;28;20164;-71
2023/12/10 07:22:02;;;;;;;0.00;0.00;;;3.10;100.00;;;;;;4971311;28;20775;-71
2023/12/10 07:24:31;;;;;;;0.00;0.00;;;3.10;100.00;;;;;;4972360;28;20782;-73
2023/12/10 07:26:58;;;;;;;0.00;0.00;;;3.10;100.00;;;;;;4968801;28;20054;-71
2023/12/10 07:29:26;;;;;;;0.00;0.00;;;3.10;100.00;;;;;;4971681;28;21300;-70
2023/12/10 07:31:53;;;;;;;0.00;0.00;;;3.10;100.00;;;;;;4969778;28;20129;-70
2023/12/10 07:34:20;;;;;;;0.00;0.00;;;3.10;100.00;;;;;;4970935;28;20058;-70
2023/12/10 07:36:47;;;;;;;0.00;0.00;;;3.10;100.00;;;;;;4971982;28;20121;-70
2023/12/10 07:39:14;;;;;;;0.00;0.00;;;3.10;100.00;;;;;;4972449;28;20046;-70
2023/12/10 07:41:41;;;;;;;0.00;0.00;;;3.10;100.00;;;;;;4971557;28;20105;-70
2023/12/10 07:44:08;;;;;;;0.00;0.00;;;3.10;100.00;;;;;;4970642;28;20537;-71
2023/12/10 07:46:35;;;;;;;0.00;0.00;;;3.10;100.00;;;;;;4970960;28;20077;-71
2023/12/10 07:49:02;;;;;;;0.00;0.00;;;3.10;100.00;;;;;;4969430;28;20058;-69
2023/12/10 07:51:29;;;;;;;0.00;0.00;;;3.10;100.00;;;;;;4969122;28;20630;-72
2023/12/10 07:53:56;;;;;;;0.00;0.00;;;3.00;100.00;;;;;;4971375;28;20042;-72
2023/12/10 07:56:22;;;;;;;0.00;0.00;;;3.00;100.00;;;;;;4971364;28;20857;-73
2023/12/10 07:58:49;;;;;;;0.00;0.00;;;3.00;100.00;;;;;;4974361;28;20214;-72
2023/12/10 08:01:16;;;;;;;0.00;0.00;;;3.00;100.00;;;;;;4975796;28;20112;-70
2023/12/10 08:03:43;;;;;;;0.00;0.00;;;3.00;100.00;;;;;;4974353;28;20186;-69
2023/12/10 08:06:10;;;;;;;0.00;0.00;;;3.00;100.00;;;;;;4981190;28;20741;-70
2023/12/10 08:08:37;;;;;;;0.00;0.00;;;3.10;100.00;;;;;;4979841;28;20047;-69
2023/12/10 08:11:05;;;;;;;0.00;0.00;;;3.10;100.00;;;;;;4973550;28;20051;-69
2023/12/10 08:13:32;;;;;;;0.00;0.00;;;3.10;100.00;;;;;;4979092;28;20093;-71
2023/12/10 08:15:59;;;;;;;0.00;0.00;;;3.10;100.00;;;;;;4981719;28;20050;-70
2023/12/10 08:18:26;;;;;;;0.00;0.00;;;3.20;100.00;;;;;;4979838;28;20054;-70
2023/12/10 08:20:54;;;;;;;0.00;0.00;;;3.20;100.00;;;;;;4975518;28;20054;-70
2023/12/10 08:23:21;;;;;;;0.00;0.00;;;3.30;100.00;;;;;;4973284;28;20074;-71
2023/12/10 08:25:48;;;;;;;0.00;0.00;;;3.30;100.00;;;;;;4972477;28;20109;-70
2023/12/10 08:28:15;;;;;;;0.00;0.00;;;3.40;100.00;;;;;;4971037;28;20193;-73
2023/12/10 08:30:42;;;;;;;0.00;0.00;;;3.40;100.00;;;;;;4974388;28;20065;-72
2023/12/10 08:33:09;;;;;;;0.00;0.00;;;3.50;100.00;;;;;;4982287;28;20042;-70
2023/12/10 08:35:36;;;;;;;0.00;0.00;;;3.50;100.00;;;;;;4982369;28;22001;-69
2023/12/10 08:38:02;;;;;;;0.00;0.00;;;3.60;100.00;;;;;;4980898;28;20054;-70
2023/12/10 08:40:29;;;;;;;0.00;0.00;;;3.60;100.00;;;;;;4976952;28;20131;-71
2023/12/10 08:42:56;;;;;;;0.00;0.00;;;3.70;100.00;;;;;;4981709;28;20054;-72
2023/12/10 08:45:23;;;;;;;0.00;0.00;;;3.80;100.00;;;;;;4977595;28;20060;-73
2023/12/10 08:47:50;;;;;;;0.00;0.00;;;3.80;100.00;;;;;;4972896;28;20879;-72
2023/12/10 08:50:17;;;;;;;0.00;0.00;;;3.80;100.00;;;;;;4988200;28;20058;-72
2023/12/10 08:52:44;;;;;;;0.00;0.00;;;3.90;100.00;;;;;;4975801;28;20065;-71
2023/12/10 08:55:11;;;;;;;0.00;0.00;;;3.90;100.00;;;;;;4976843;28;20161;-73
2023/12/10 08:57:38;;;;;;;0.00;0.00;;;4.00;100.00;;;;;;4980590;28;20049;-72
2023/12/10 09:00:06;;;;;;;0.00;0.00;;;4.00;100.00;;;;;;4980576;28;20042;-70
2023/12/10 09:02:33;;;;;;;0.00;0.00;;;4.10;100.00;;;;;;4979941;28;20113;-70
2023/12/10 09:05:00;;;;;;;0.00;0.00;;;4.10;100.00;;;;;;4981971;28;20050;-71
2023/12/10 09:07:29;;;;;;;0.00;0.00;;;4.20;100.00;;;;;;4974516;28;20090;-72
2023/12/10 09:09:59;;;;;;;0.00;0.00;;;4.20;100.00;;;;;;4979561;28;20072;-73
2023/12/10 09:12:38;;;;;;;0.00;0.00;;;4.30;100.00;;;;;;4979686;28;20484;-70
2023/12/10 09:15:06;;;;;;;0.00;0.00;;;4.30;100.00;;;;;;4982662;28;20050;-70
2023/12/10 09:17:33;;;;;;;0.00;0.00;;;4.40;100.00;;;;;;4981810;28;20089;-70
2023/12/10 09:20:00;;;;;;;0.00;0.00;;;4.50;100.00;;;;;;4978812;28;20186;-70
2023/12/10 09:22:27;;;;;;;0.00;0.00;;;4.60;100.00;;;;;;4974468;28;20050;-70
2023/12/10 09:24:54;;;;;;;0.00;0.00;;;4.60;100.00;;;;;;4971942;28;20196;-70
2023/12/10 09:27:21;;;;;;;0.00;0.00;;;4.70;100.00;;;;;;4975571;28;20678;-70
2023/12/10 09:29:48;;;;;;;0.00;0.00;;;4.80;100.00;;;;;;4978952;28;20561;-70
2023/12/10 09:32:16;;;;;;;0.00;0.00;;;4.80;100.00;;;;;;4983160;28;20078;-70
2023/12/10 09:34:44;;;;;;;0.00;0.00;;;4.80;100.00;;;;;;4981656;28;20626;-69
2023/12/10 09:37:13;;;;;;;0.00;0.00;;;4.90;100.00;;;;;;4981507;28;20121;-69
2023/12/10 09:39:40;;;;;;;0.00;0.00;;;4.90;100.00;;;;;;4982150;28;20049;-69
2023/12/10 09:42:08;;;;;;;0.00;0.00;;;5.00;100.00;;;;;;4977757;28;20820;-68
2023/12/10 09:44:35;;;;;;;0.00;0.00;;;5.10;100.00;;;;;;4975369;28;20050;-68
2023/12/10 09:47:07;;;;;;;0.00;0.00;;;5.20;100.00;;;;;;4988691;28;20137;-68
2023/12/10 09:49:37;;;;;;;0.00;0.00;;;5.20;100.00;;;;;;4971603;28;20128;-68
2023/12/10 09:52:09;;;;;;;0.00;0.00;;;5.30;100.00;;;;;;4976479;28;20511;-69
2023/12/10 09:54:40;;;;;;;0.00;0.00;;;5.30;100.00;;;;;;4980707;28;20050;-68
2023/12/10 09:57:08;;;;;;;0.00;0.00;;;5.40;100.00;;;;;;4975060;28;20074;-68
2023/12/10 09:59:36;;;;;;;0.00;0.00;;;5.50;100.00;;;;;;4984036;28;20050;-70
2023/12/10 10:02:05;;;;;;;0.00;0.00;;;5.40;100.00;;;;;;4978675;28;20057;-68
2023/12/10 10:04:32;;;;;;;0.00;0.00;;;5.50;100.00;;;;;;4984819;28;20042;-68
2023/12/10 10:07:03;;;;;;;0.00;0.00;;;5.60;100.00;;;;;;4975304;28;20047;-68
2023/12/10 10:09:34;;;;;;;0.00;0.00;;;5.60;100.00;;;;;;4978914;28;20050;-68
2023/12/10 10:12:04;;;;;;;0.00;0.00;;;5.60;100.00;;;;;;4979498;28;20062;-68
2023/12/10 10:14:32;;;;;;;0.00;0.00;;;5.60;100.00;;;;;;4985302;28;20088;-68
2023/12/10 10:16:59;;;;;;;0.00;0.00;;;5.70;100.00;;;;;;4978840;28;20050;-68
2023/12/10 10:19:27;;;;;;;0.00;0.00;;;5.80;100.00;;;;;;4979910;28;20061;-68
2023/12/10 10:21:54;;;;;;;0.00;0.00;;;5.80;100.00;;;;;;4982448;28;20054;-68
2023/12/10 10:24:22;;;;;;;0.00;0.00;;;5.90;100.00;;;;;;4979065;28;20831;-69
2023/12/10 10:26:52;;;;;;;0.00;0.00;;;5.90;100.00;;;;;;4979366;28;20050;-70
2023/12/10 10:29:22;;;;;;;0.00;0.00;;;5.90;100.00;;;;;;4974725;28;20054;-68
2023/12/10 10:31:51;;;;;;;0.00;0.00;;;5.90;100.00;;;;;;4968070;28;20116;-68
2023/12/10 10:34:20;;;;;;;0.00;0.00;;;5.90;100.00;;;;;;4982443;28;20124;-68
2023/12/10 10:36:48;;;;;;;0.00;0.00;;;5.80;100.00;;;;;;4984134;28;20889;-69
2023/12/10 10:39:15;;;;;;;0.00;0.00;;;5.80;100.00;;;;;;4977301;28;20402;-69
2023/12/10 10:41:42;;;;;;;0.00;0.00;;;5.80;100.00;;;;;;4979792;28;20058;-68
2023/12/10 10:44:09;;;;;;;0.00;0.00;;;5.80;100.00;;;;;;4983318;28;20074;-69
2023/12/10 10:46:36;;;;;;;0.00;0.00;;;5.80;100.00;;;;;;4984545;28;20102;-69
2023/12/10 10:49:03;;;;;;;0.00;0.00;;;5.80;100.00;;;;;;4979305;28;20046;-68
2023/12/10 10:51:33;;;;;;;0.00;0.00;;;5.80;100.00;;;;;;4972660;28;20475;-69
2023/12/10 10:54:03;;;;;;;0.00;0.00;;;5.80;100.00;;;;;;4976674;28;20057;-69
2023/12/10 10:56:31;;;;;;;0.00;0.00;;;5.80;100.00;;;;;;4982604;28;20050;-69
2023/12/10 10:58:59;;;;;;;0.00;0.00;;;5.90;100.00;;;;;;4980829;28;20550;-69
2023/12/10 11:01:41;;;;;;;0.00;0.00;;;5.90;100.00;;;;;;4973874;28;20051;-69
2023/12/10 11:04:12;;;;;;;0.00;0.00;;;5.90;100.00;;;;;;4976668;28;20133;-69
2023/12/10 11:06:41;;;;;;;0.00;0.00;;;6.00;100.00;;;;;;4978389;28;20097;-70
2023/12/10 11:09:08;;;;;;;0.00;0.00;;;6.10;100.00;;;;;;4973368;28;20046;-69
2023/12/10 11:11:39;;;;;;;0.00;0.00;;;6.10;100.00;;;;;;4982991;28;20545;-70
2023/12/10 11:14:25;;;;;;;0.00;0.00;;;6.10;100.00;;;;;;4982080;28;20046;-69
2023/12/10 11:17:06;;;;;;;0.00;0.00;;;6.20;100.00;;;;;;4978774;28;20054;-70
2023/12/10 11:19:33;;;;;;;0.00;0.00;;;6.20;100.00;;;;;;4983925;28;20129;-70
2023/12/10 11:22:01;;;;;;;0.00;0.00;;;6.20;100.00;;;;;;4981950;28;20048;-69
2023/12/10 11:24:29;;;;;;;0.00;0.00;;;6.20;100.00;;;;;;4980062;28;20082;-69
2023/12/10 11:26:57;;;;;;;0.00;0.00;;;6.30;100.00;;;;;;4984268;28;20097;-69
2023/12/10 11:29:24;;;;;;;0.00;0.00;;;6.30;100.00;;;;;;4982827;28;20046;-70
2023/12/10 11:31:51;;;;;;;0.00;0.00;;;6.30;100.00;;;;;;4973869;28;20046;-70
2023/12/10 11:34:17;;;;;;;0.00;0.00;;;6.40;100.00;;;;;;4985913;28;20050;-70
2023/12/10 11:36:47;;;;;;;0.00;0.00;;;6.50;100.00;;;;;;4986527;28;21556;-68
2023/12/10 11:39:15;;;;;;;0.00;0.00;;;6.50;100.00;;;;;;4977472;28;20046;-68
2023/12/10 11:41:42;;;;;;;0.00;0.00;;;6.50;100.00;;;;;;4987862;28;20046;-69
2023/12/10 11:44:25;;;;;;;0.00;0.00;;;6.50;100.00;;;;;;4984868;28;20506;-68
2023/12/10 11:46:52;;;;;;;0.00;0.00;;;6.50;100.00;;;;;;4987435;28;20046;-70
2023/12/10 11:49:24;;;;;;;0.00;0.00;;;6.50;100.00;;;;;;4986786;28;20057;-69
2023/12/10 11:51:52;;;;;;;0.00;0.00;;;6.50;100.00;;;;;;4982556;28;20062;-69
2023/12/10 11:54:19;;;;;;;0.00;0.00;;;6.50;100.00;;;;;;4982058;28;20049;-70
2023/12/10 11:56:46;;;;;;;0.00;0.00;;;6.50;100.00;;;;;;4984392;28;20034;-69
2023/12/10 11:59:13;;;;;;;0.00;0.00;;;6.50;100.00;;;;;;4979899;28;20125;-70
2023/12/10 12:01:40;;;;;;;0.00;0.00;;;6.50;100.00;;;;;;4986182;28;20050;-70
2023/12/10 12:04:07;;;;;;;0.00;0.00;;;6.50;100.00;;;;;;4988130;28;20356;-70
2023/12/10 12:06:42;;;;;;;0.00;0.00;;;6.50;100.00;;;;;;4980066;28;20789;-70
2023/12/10 12:09:22;;;;;;;0.00;0.00;;;6.50;100.00;;;;;;4987484;28;20092;-69
2023/12/10 12:11:50;;;;;;;0.00;0.00;;;6.40;100.00;;;;;;4979965;28;20113;-69
2023/12/10 12:14:19;;;;;;;0.00;0.00;;;6.40;100.00;;;;;;4983277;28;20054;-70
2023/12/10 12:16:46;;;;;;;0.00;0.00;;;6.40;100.00;;;;;;4978137;28;20046;-69
2023/12/10 12:19:26;;;;;;;0.00;0.00;;;6.40;100.00;;;;;;4975777;28;20053;-69
2023/12/10 12:21:57;;;;;;;0.00;0.00;;;6.40;100.00;;;;;;4980250;28;20130;-70
2023/12/10 12:24:24;;;;;;;0.00;0.00;;;6.50;100.00;;;;;;4980947;28;20097;-70
2023/12/10 12:26:51;;;;;;;0.00;0.00;;;6.60;100.00;;;;;;4987081;28;20053;-69
2023/12/10 12:29:18;;;;;;;0.00;0.00;;;6.60;100.00;;;;;;4982622;28;20050;-70
2023/12/10 12:31:45;;;;;;;0.00;0.00;;;6.60;100.00;;;;;;4987451;28;20069;-70
2023/12/10 12:34:32;;;;;;;0.00;0.00;;;6.70;100.00;;;;;;4982896;28;20055;-70
2023/12/10 12:36:59;;;;;;;0.00;0.00;;;6.70;100.00;;;;;;4983499;28;20136;-70
2023/12/10 12:39:26;;;;;;;0.00;0.00;;;6.80;100.00;;;;;;4977411;28;20049;-70
2023/12/10 12:41:53;;;;;;;0.00;0.00;;;6.90;100.00;;;;;;4983130;28;20051;-69
2023/12/10 12:44:20;;;;;;;0.00;0.00;;;7.00;100.00;;;;;;4981724;28;20550;-70
2023/12/10 12:46:47;;;;;;;0.00;0.00;;;7.20;100.00;;;;;;4983924;28;20054;-71
2023/12/10 12:49:18;;;;;;;0.00;0.00;;;7.30;100.00;;;;;;4985018;28;20049;-71